createdAt,value
2022-11-23T00:01:32.814Z,97917.38
2022-11-23T00:04:03.788Z,97914.34
2022-11-23T00:06:30.563Z,97913.53
2022-11-23T00:08:57.292Z,97921.28
2022-11-23T00:11:25.537Z,97918.78
2022-11-23T00:13:52.776Z,97922.81
2022-11-23T00:16:24.699Z,97918.66
2022-11-23T00:18:58.852Z,97920.31
2022-11-23T00:21:28.206Z,97925.44
2022-11-23T00:23:54.613Z,97924.38
2022-11-23T00:26:21.429Z,97914.66
2022-11-23T00:28:47.897Z,97914.66
2022-11-23T00:31:16.749Z,97920.88
2022-11-23T00:33:47.960Z,97925.19
2022-11-23T00:36:15.565Z,97924.38
2022-11-23T00:38:43.295Z,97925.19
2022-11-23T00:41:15.559Z,97923.50
2022-11-23T00:43:42.289Z,97929.50
2022-11-23T00:46:14.730Z,97932.38
2022-11-23T00:48:41.950Z,97926.03
2022-11-23T00:51:10.570Z,97921.72
2022-11-23T00:53:37.620Z,97928.78
2022-11-23T00:56:04.736Z,97923.63
2022-11-23T00:58:31.799Z,97930.56
2022-11-23T01:01:13.094Z,97927.38
2022-11-23T01:03:44.133Z,97928.22
2022-11-23T01:06:13.055Z,97927.25
2022-11-23T01:08:39.738Z,97936.91
2022-11-23T01:11:09.560Z,97937.06
2022-11-23T01:13:37.436Z,97934.44
2022-11-23T01:16:03.912Z,97941.47
2022-11-23T01:18:30.225Z,97937.06
2022-11-23T01:20:56.653Z,97942.31
2022-11-23T01:23:23.057Z,97949.25
2022-11-23T01:25:53.120Z,97946.84
2022-11-23T01:28:23.228Z,97946.72
2022-11-23T01:30:49.536Z,97941.59
2022-11-23T01:33:15.846Z,97948.63
2022-11-23T01:35:42.233Z,97945.31
2022-11-23T01:38:11.480Z,97952.34
2022-11-23T01:40:43.401Z,97940.06
2022-11-23T01:43:18.013Z,97942.81
2022-11-23T01:45:53.238Z,97948.78
2022-11-23T01:48:41.633Z,97946.00
2022-11-23T01:51:31.103Z,97945.88
2022-11-23T01:54:04.913Z,97947.69
2022-11-23T01:56:43.957Z,97946.00
2022-11-23T01:59:15.601Z,97949.47
2022-11-23T02:01:43.421Z,97959.03
2022-11-23T02:04:14.654Z,97961.66
2022-11-23T02:06:42.891Z,97962.63
2022-11-23T02:09:09.337Z,97958.34
2022-11-23T02:11:35.641Z,97961.66
2022-11-23T02:14:02.036Z,97958.34
2022-11-23T02:16:28.490Z,97965.25
2022-11-23T02:18:55.111Z,97961.94
2022-11-23T02:21:22.790Z,97956.69
2022-11-23T02:23:59.863Z,97963.00
2022-11-23T02:26:30.211Z,97964.56
2022-11-23T02:29:14.479Z,97970.19
2022-11-23T02:31:40.840Z,97954.97
2022-11-23T02:34:07.590Z,97957.63
2022-11-23T02:36:41.104Z,97964.69
2022-11-23T02:39:10.520Z,97972.44
2022-11-23T02:41:42.474Z,97969.81
2022-11-23T02:44:49.812Z,97968.97
2022-11-23T02:47:16.393Z,97973.84
2022-11-23T02:49:47.253Z,97972.16
2022-11-23T02:52:14.164Z,97971.06
2022-11-23T02:54:40.535Z,97969.97
2022-11-23T02:57:07.785Z,97976.94
2022-11-23T02:59:34.731Z,97975.97
2022-11-23T03:02:02.352Z,97978.59
2022-11-23T03:04:28.720Z,97981.91
2022-11-23T03:06:55.391Z,97977.50
2022-11-23T03:09:22.156Z,97986.91
2022-11-23T03:11:48.497Z,97983.31
2022-11-23T03:14:14.997Z,97984.84
2022-11-23T03:16:41.358Z,97995.38
2022-11-23T03:19:07.736Z,97984.84
2022-11-23T03:21:34.130Z,97990.00
2022-11-23T03:24:00.491Z,97991.69
2022-11-23T03:26:26.789Z,97992.50
2022-11-23T03:28:53.122Z,97992.50
2022-11-23T03:31:19.486Z,97994.31
2022-11-23T03:33:45.875Z,98005.78
2022-11-23T03:36:12.284Z,98000.38
2022-11-23T03:38:38.654Z,98011.03
2022-11-23T03:41:05.134Z,98011.75
2022-11-23T03:43:31.487Z,98005.88
2022-11-23T03:45:57.847Z,98005.06
2022-11-23T03:48:24.234Z,98002.31
2022-11-23T03:50:50.658Z,98004.94
2022-11-23T03:53:17.128Z,97996.94
2022-11-23T03:55:46.887Z,98011.16
2022-11-23T03:58:13.317Z,98004.66
2022-11-23T04:00:39.762Z,98004.66
2022-11-23T04:03:06.221Z,98008.28
2022-11-23T04:05:32.760Z,98005.53
2022-11-23T04:07:59.140Z,98008.16
2022-11-23T04:10:26.349Z,98010.78
2022-11-23T04:12:53.744Z,98014.25
2022-11-23T04:15:20.453Z,98005.53
2022-11-23T04:17:47.806Z,98009.81
2022-11-23T04:20:14.610Z,98013.41
2022-11-23T04:22:41.062Z,98007.19
2022-11-23T04:25:07.802Z,98017.69
2022-11-23T04:27:34.255Z,98013.28
2022-11-23T04:30:00.659Z,98012.56
2022-11-23T04:32:26.988Z,98015.06
2022-11-23T04:34:53.309Z,98011.50
2022-11-23T04:37:19.639Z,98009.69
2022-11-23T04:39:46.051Z,98008.72
2022-11-23T04:42:12.841Z,98019.09
2022-11-23T04:47:08.075Z,98018.97
2022-11-23T04:49:34.823Z,98004.88
2022-11-23T04:52:01.314Z,98015.25
2022-11-23T04:54:27.816Z,98009.03
2022-11-23T04:56:54.491Z,98028.16
2022-11-23T04:59:22.211Z,98018.34
2022-11-23T05:01:49.755Z,98024.44
2022-11-23T05:04:18.040Z,98023.47
2022-11-23T05:06:45.330Z,98022.50
2022-11-23T05:09:12.140Z,98025.97
2022-11-23T05:11:38.739Z,98028.59
2022-11-23T05:14:05.333Z,98020.72
2022-11-23T05:16:31.859Z,98022.50
2022-11-23T05:18:58.287Z,98019.75
2022-11-23T05:21:25.057Z,98019.06
2022-11-23T05:23:51.484Z,98026.94
2022-11-23T05:26:17.995Z,98025.97
2022-11-23T05:28:44.460Z,98020.84
2022-11-23T05:31:11.113Z,98020.84
2022-11-23T05:33:37.890Z,98021.81
2022-11-23T05:36:04.721Z,98031.47
2022-11-23T05:38:31.254Z,98021.94
2022-11-23T05:40:57.746Z,98027.19
2022-11-23T05:43:24.197Z,98031.63
2022-11-23T05:45:50.794Z,98031.75
2022-11-23T05:48:17.655Z,98023.88
2022-11-23T05:50:44.160Z,98028.28
2022-11-23T05:53:10.625Z,98033.53
2022-11-23T05:55:37.209Z,98039.66
2022-11-23T05:58:03.798Z,98031.63
2022-11-23T06:00:30.366Z,98037.72
2022-11-23T06:03:03.508Z,98040.75
2022-11-23T06:05:30.663Z,98041.44
2022-11-23T06:07:57.587Z,98046.94
2022-11-23T06:10:24.059Z,98043.63
2022-11-23T06:12:51.696Z,98040.41
2022-11-23T06:15:19.126Z,98052.84
2022-11-23T06:17:45.605Z,98050.47
2022-11-23T06:20:12.426Z,98054.91
2022-11-23T06:22:39.032Z,98054.31
2022-11-23T06:25:05.952Z,98049.19
2022-11-23T06:27:32.414Z,98052.75
2022-11-23T06:29:58.878Z,98054.56
2022-11-23T06:32:25.482Z,98052.88
2022-11-23T06:34:52.018Z,98056.34
2022-11-23T06:37:19.380Z,98051.22
2022-11-23T06:39:45.906Z,98051.22
2022-11-23T06:44:59.831Z,98053.84
2022-11-23T06:47:28.288Z,98059.09
2022-11-23T06:49:55.055Z,98064.38
2022-11-23T06:52:21.538Z,98064.38
2022-11-23T06:54:48.152Z,98066.03
2022-11-23T06:57:14.748Z,98059.97
2022-11-23T06:59:44.705Z,98069.50
2022-11-23T07:02:12.441Z,98066.88
2022-11-23T07:04:38.892Z,98074.75
2022-11-23T07:07:05.552Z,98072.97
2022-11-23T07:09:32.367Z,98079.91
2022-11-23T07:11:59.103Z,98079.91
2022-11-23T07:14:25.630Z,98076.31
2022-11-23T07:16:52.213Z,98079.91
2022-11-23T07:19:18.722Z,98090.41
2022-11-23T07:21:45.847Z,98081.81
2022-11-23T07:24:12.329Z,98087.91
2022-11-23T07:26:38.802Z,98094.00
2022-11-23T07:29:05.362Z,98091.38
2022-11-23T07:31:32.171Z,98094.81
2022-11-23T07:33:58.671Z,98095.66
2022-11-23T07:36:25.226Z,98106.19
2022-11-23T07:38:51.823Z,98100.94
2022-11-23T07:41:18.439Z,98097.34
2022-11-23T07:43:45.003Z,98099.00
2022-11-23T07:46:11.520Z,98105.78
2022-11-23T07:48:37.994Z,98110.94
2022-11-23T07:51:04.634Z,98112.63
2022-11-23T07:53:31.142Z,98101.94
2022-11-23T07:55:58.740Z,98108.91
2022-11-23T07:58:25.655Z,98111.53
2022-11-23T08:00:52.324Z,98108.91
2022-11-23T08:03:27.829Z,98108.78
2022-11-23T08:05:54.569Z,98109.72
2022-11-23T08:08:21.088Z,98120.25
2022-11-23T08:10:52.887Z,98116.78
2022-11-23T08:13:20.331Z,98119.41
2022-11-23T08:15:53.266Z,98122.88
2022-11-23T08:18:20.805Z,98122.75
2022-11-23T08:20:47.362Z,98126.22
2022-11-23T08:23:13.877Z,98134.81
2022-11-23T08:25:40.448Z,98129.53
2022-11-23T08:28:07.252Z,98138.16
2022-11-23T08:30:34.548Z,98128.47
2022-11-23T08:33:05.691Z,98145.09
2022-11-23T08:35:36.965Z,98134.56
2022-11-23T08:38:08.842Z,98136.22
2022-11-23T08:40:36.774Z,98136.09
2022-11-23T08:43:03.879Z,98141.25
2022-11-23T08:45:30.449Z,98143.88
2022-11-23T08:48:03.970Z,98145.78
2022-11-23T08:50:32.139Z,98141.25
2022-11-23T08:53:00.024Z,98144.56
2022-11-23T08:55:28.083Z,98149.81
2022-11-23T08:57:58.944Z,98146.38
2022-11-23T09:00:26.716Z,98148.88
2022-11-23T09:02:53.633Z,98153.19
2022-11-23T09:05:20.291Z,98144.44
2022-11-23T09:07:46.950Z,98149.59
2022-11-23T09:10:17.963Z,98153.88
2022-11-23T09:12:45.911Z,98151.97
2022-11-23T09:15:12.488Z,98148.50
2022-11-23T09:17:38.917Z,98159.84
2022-11-23T09:20:06.223Z,98154.59
2022-11-23T09:22:32.765Z,98165.81
2022-11-23T09:24:59.324Z,98164.88
2022-11-23T09:27:25.983Z,98161.28
2022-11-23T09:29:52.632Z,98169.88
2022-11-23T09:32:19.187Z,98162.81
2022-11-23T09:34:45.671Z,98165.25
2022-11-23T09:37:13.131Z,98162.59
2022-11-23T09:39:39.706Z,98159.00
2022-11-23T09:42:21.120Z,98156.38
2022-11-23T09:45:11.622Z,98158.88
2022-11-23T09:47:53.036Z,98163.31
2022-11-23T09:50:42.575Z,98159.81
2022-11-23T09:53:13.858Z,98159.34
2022-11-23T09:55:44.008Z,98153.66
2022-11-23T09:58:16.226Z,98148.16
2022-11-23T10:01:00.517Z,98152.09
2022-11-23T10:03:28.766Z,98145.94
2022-11-23T10:06:18.037Z,98160.50
2022-11-23T10:08:55.770Z,98146.56
2022-11-23T10:11:48.930Z,98151.44
2022-11-23T10:14:18.158Z,98150.91
2022-11-23T10:16:59.672Z,98149.94
2022-11-23T10:19:35.127Z,98148.72
2022-11-23T10:22:23.383Z,98149.56
2022-11-23T10:24:53.220Z,98152.38
2022-11-23T10:27:22.161Z,98154.75
2022-11-23T10:29:49.519Z,98145.47
2022-11-23T10:32:38.372Z,98149.78
2022-11-23T10:35:23.663Z,98152.03
2022-11-23T10:37:53.481Z,98151.34
2022-11-23T10:40:26.245Z,98143.31
2022-11-23T10:43:08.736Z,98150.13
2022-11-23T10:45:35.348Z,98145.31
2022-11-23T10:48:01.781Z,98140.59
2022-11-23T10:50:30.186Z,98142.00
2022-11-23T10:53:00.593Z,98144.50
2022-11-23T10:55:33.181Z,98144.94
2022-11-23T10:58:00.626Z,98141.75
2022-11-23T11:00:31.215Z,98144.13
2022-11-23T11:02:59.346Z,98148.03
2022-11-23T11:08:30.238Z,98147.88
2022-11-23T11:11:06.871Z,98143.88
2022-11-23T11:13:44.493Z,98147.66
2022-11-23T11:16:25.621Z,98141.72
2022-11-23T11:18:52.050Z,98147.00
2022-11-23T11:21:33.138Z,98131.59
2022-11-23T11:24:03.514Z,98139.78
2022-11-23T11:26:33.262Z,98141.31
2022-11-23T11:29:05.507Z,98143.22
2022-11-23T11:31:55.304Z,98132.66
2022-11-23T11:34:49.122Z,98125.84
2022-11-23T11:37:37.559Z,98133.72
2022-11-23T11:40:29.868Z,98128.72
2022-11-23T11:43:05.812Z,98115.94
2022-11-23T11:45:36.773Z,98112.03
2022-11-23T11:48:12.625Z,98127.88
2022-11-23T11:50:47.216Z,98125.03
2022-11-23T11:56:12.831Z,98116.56
2022-11-23T11:58:44.588Z,98114.25
2022-11-23T12:01:35.936Z,98108.56
2022-11-23T12:04:08.050Z,98098.22
2022-11-23T12:06:59.087Z,98086.78
2022-11-23T12:09:32.840Z,98083.81
2022-11-23T12:11:59.540Z,98072.88
2022-11-23T12:14:26.789Z,98078.00
2022-11-23T12:17:31.952Z,98080.34
2022-11-23T12:20:13.159Z,98077.72
2022-11-23T12:23:08.789Z,98068.38
2022-11-23T12:25:39.200Z,98070.47
2022-11-23T12:28:21.146Z,98066.16
2022-11-23T12:31:27.935Z,98075.06
2022-11-23T12:34:24.371Z,98069.06
2022-11-23T12:37:15.336Z,98067.84
2022-11-23T12:40:20.023Z,98064.56
2022-11-23T12:42:54.856Z,98057.09
2022-11-23T12:45:40.286Z,98068.91
2022-11-23T12:48:33.846Z,98075.28
2022-11-23T12:51:18.219Z,98065.53
2022-11-23T12:53:52.799Z,98070.03
2022-11-23T12:56:39.390Z,98065.91
2022-11-23T12:59:10.453Z,98070.16
2022-11-23T13:01:45.719Z,98097.00
2022-11-23T13:04:42.387Z,98085.28
2022-11-23T13:07:37.278Z,98093.81
2022-11-23T13:10:21.314Z,98089.44
2022-11-23T13:12:47.565Z,98096.09
2022-11-23T13:15:40.215Z,98102.50
2022-11-23T13:18:25.438Z,98094.72
2022-11-23T13:21:12.536Z,98102.50
2022-11-23T13:23:40.377Z,98102.91
2022-11-23T13:26:15.712Z,98098.28
2022-11-23T13:28:43.131Z,98104.63
2022-11-23T13:31:15.913Z,98102.31
2022-11-23T13:33:44.676Z,98096.78
2022-11-23T13:36:18.520Z,98097.50
2022-11-23T13:38:46.520Z,98091.84
2022-11-23T13:41:39.415Z,98100.19
2022-11-23T13:44:24.986Z,98093.94
2022-11-23T13:47:01.516Z,98092.28
2022-11-23T13:49:34.643Z,98096.72
2022-11-23T13:52:22.233Z,98093.00
2022-11-23T13:55:10.587Z,98099.56
2022-11-23T13:57:38.884Z,98099.25
2022-11-23T14:00:42.929Z,98089.78
2022-11-23T14:03:49.701Z,98094.38
2022-11-23T14:06:25.039Z,98087.47
2022-11-23T14:09:06.713Z,98068.56
2022-11-23T14:11:42.016Z,98059.06
2022-11-23T14:14:16.952Z,98050.94
2022-11-23T14:17:16.617Z,98039.47
2022-11-23T14:20:12.564Z,98049.47
2022-11-23T14:23:13.422Z,98033.41
2022-11-23T14:25:54.908Z,98037.19
2022-11-23T14:28:50.194Z,98042.78
2022-11-23T14:32:01.373Z,98047.03
2022-11-23T14:35:04.383Z,98048.75
2022-11-23T14:37:53.794Z,98043.16
2022-11-23T14:40:51.755Z,98042.16
2022-11-23T14:43:19.525Z,98051.78
2022-11-23T14:45:47.434Z,98048.94
2022-11-23T14:48:29.023Z,98050.53
2022-11-23T14:51:05.920Z,98055.78
2022-11-23T14:53:46.714Z,98059.19
2022-11-23T14:56:39.255Z,98049.41
2022-11-23T14:59:17.372Z,98057.81
2022-11-23T15:01:54.332Z,98054.25
2022-11-23T15:04:36.994Z,98056.66
2022-11-23T15:07:10.763Z,98057.53
2022-11-23T15:09:49.440Z,98056.19
2022-11-23T15:12:28.730Z,98059.09
2022-11-23T15:14:59.293Z,98065.75
2022-11-23T15:17:27.026Z,98065.78
2022-11-23T15:20:00.844Z,98067.69
2022-11-23T15:22:29.024Z,98066.47
2022-11-23T15:25:06.913Z,98061.31
2022-11-23T15:27:33.321Z,98066.84
2022-11-23T15:30:00.338Z,98071.16
2022-11-23T15:32:33.758Z,98073.78
2022-11-23T15:35:22.746Z,98065.97
2022-11-23T15:37:50.476Z,98078.72
2022-11-23T15:40:18.887Z,98076.78
2022-11-23T15:42:48.024Z,98081.03
2022-11-23T15:45:46.286Z,98083.78
2022-11-23T15:48:31.850Z,98094.69
2022-11-23T15:51:00.401Z,98093.53
2022-11-23T15:53:48.730Z,98088.81
2022-11-23T15:56:23.486Z,98091.16
2022-11-23T15:58:52.102Z,98091.41
2022-11-23T16:01:18.795Z,98104.84
2022-11-23T16:04:04.393Z,98108.22
2022-11-23T16:06:42.327Z,98114.72
2022-11-23T16:09:52.198Z,98121.19
2022-11-23T16:12:30.582Z,98116.91
2022-11-23T16:15:18.514Z,98121.59
2022-11-23T16:17:45.431Z,98127.00
2022-11-23T16:20:14.612Z,98132.63
2022-11-23T16:22:48.440Z,98134.69
2022-11-23T16:25:31.728Z,98130.63
2022-11-23T16:27:59.231Z,98137.56
2022-11-23T16:30:28.060Z,98132.19
2022-11-23T16:32:54.724Z,98129.66
2022-11-23T16:35:21.500Z,98123.72
2022-11-23T16:37:47.948Z,98125.50
2022-11-23T16:40:17.521Z,98131.59
2022-11-23T16:42:47.260Z,98134.94
2022-11-23T16:47:57.020Z,98137.31
2022-11-23T16:50:24.316Z,98148.16
2022-11-23T16:52:51.460Z,98158.44
2022-11-23T16:55:18.166Z,98156.38
2022-11-23T16:57:45.481Z,98154.47
2022-11-23T17:00:18.076Z,98158.66
2022-11-23T17:02:44.645Z,98168.63
2022-11-23T17:05:20.094Z,98167.81
2022-11-23T17:07:47.245Z,98171.88
2022-11-23T17:10:14.894Z,98173.53
2022-11-23T17:12:49.452Z,98181.56
2022-11-23T17:15:20.943Z,98186.81
2022-11-23T17:17:47.458Z,98191.34
2022-11-23T17:20:15.146Z,98193.66
2022-11-23T17:22:41.714Z,98195.97
2022-11-23T17:25:14.425Z,98200.34
2022-11-23T17:27:42.282Z,98197.63
2022-11-23T17:30:20.826Z,98196.91
2022-11-23T17:32:48.843Z,98199.22
2022-11-23T17:35:16.335Z,98198.88
2022-11-23T17:37:43.240Z,98187.19
2022-11-23T17:40:21.563Z,98193.91
2022-11-23T17:42:48.405Z,98192.94
2022-11-23T17:45:15.074Z,98196.53
2022-11-23T17:47:44.229Z,98195.69
2022-11-23T17:50:17.718Z,98197.47
2022-11-23T17:52:45.827Z,98198.19
2022-11-23T17:55:13.888Z,98196.41
2022-11-23T17:57:41.048Z,98191.00
2022-11-23T18:00:15.676Z,98196.25
2022-11-23T18:02:42.255Z,98200.31
2022-11-23T18:05:09.679Z,98212.38
2022-11-23T18:07:37.048Z,98207.13
2022-11-23T18:10:04.415Z,98201.75
2022-11-23T18:12:30.940Z,98203.44
2022-11-23T18:14:57.497Z,98207.63
2022-11-23T18:17:24.178Z,98204.97
2022-11-23T18:19:50.786Z,98216.19
2022-11-23T18:22:17.378Z,98212.59
2022-11-23T18:24:43.830Z,98209.03
2022-11-23T18:27:10.503Z,98211.66
2022-11-23T18:29:37.834Z,98212.47
2022-11-23T18:32:06.206Z,98209.84
2022-11-23T18:34:32.861Z,98217.75
2022-11-23T18:36:59.301Z,98223.97
2022-11-23T18:39:25.863Z,98227.56
2022-11-23T18:41:52.421Z,98232.81
2022-11-23T18:44:18.938Z,98246.09
2022-11-23T18:46:45.954Z,98251.47
2022-11-23T18:49:12.823Z,98249.91
2022-11-23T18:51:39.469Z,98262.50
2022-11-23T18:54:06.014Z,98259.25
2022-11-23T18:56:32.590Z,98271.94
2022-11-23T18:58:59.059Z,98266.09
2022-11-23T19:01:25.772Z,98269.91
2022-11-23T19:03:53.245Z,98274.69
2022-11-23T19:06:22.205Z,98273.13
2022-11-23T19:08:51.083Z,98283.78
2022-11-23T19:11:23.152Z,98277.78
2022-11-23T19:13:52.424Z,98290.22
2022-11-23T19:16:21.373Z,98288.53
2022-11-23T19:18:53.204Z,98281.59
2022-11-23T19:21:21.680Z,98286.88
2022-11-23T19:23:49.989Z,98293.78
2022-11-23T19:26:17.609Z,98305.16
2022-11-23T19:28:44.912Z,98306.94
2022-11-23T19:31:11.785Z,98313.03
2022-11-23T19:33:38.345Z,98306.94
2022-11-23T19:36:10.509Z,98319.38
2022-11-23T19:38:37.012Z,98313.16
2022-11-23T19:41:03.660Z,98324.50
2022-11-23T19:43:30.339Z,98318.41
2022-11-23T19:45:58.339Z,98319.25
2022-11-23T19:48:25.292Z,98321.75
2022-11-23T19:51:07.679Z,98330.84
2022-11-23T19:53:36.297Z,98326.16
2022-11-23T19:56:03.689Z,98336.69
2022-11-23T19:58:34.391Z,98336.91
2022-11-23T20:01:07.921Z,98331.53
2022-11-23T20:03:35.022Z,98336.78
2022-11-23T20:06:04.346Z,98338.72
2022-11-23T20:08:30.926Z,98339.44
2022-11-23T20:10:57.936Z,98351.75
2022-11-23T20:13:24.741Z,98351.75
2022-11-23T20:15:51.435Z,98358.78
2022-11-23T20:18:19.007Z,98356.16
2022-11-23T20:20:47.523Z,98363.19
2022-11-23T20:23:14.815Z,98365.81
2022-11-23T20:25:42.332Z,98372.88
2022-11-23T20:28:16.016Z,98367.84
2022-11-23T20:30:43.543Z,98367.84
2022-11-23T20:33:10.341Z,98361.88
2022-11-23T20:35:36.889Z,98362.00
2022-11-23T20:38:04.988Z,98369.03
2022-11-23T20:40:32.151Z,98370.00
2022-11-23T20:42:59.580Z,98380.50
2022-11-23T20:45:26.945Z,98377.16
2022-11-23T20:47:54.696Z,98381.56
2022-11-23T20:50:26.852Z,98381.56
2022-11-23T20:53:03.544Z,98393.16
2022-11-23T20:55:31.933Z,98400.78
2022-11-23T20:57:58.315Z,98395.53
2022-11-23T21:00:25.140Z,98399.88
2022-11-23T21:02:53.341Z,98402.50
2022-11-23T21:05:20.759Z,98404.97
2022-11-23T21:07:48.570Z,98404.88
2022-11-23T21:10:35.137Z,98416.22
2022-11-23T21:13:20.250Z,98419.56
2022-11-23T21:15:47.301Z,98416.81
2022-11-23T21:18:14.525Z,98415.03
2022-11-23T21:20:43.187Z,98425.44
2022-11-23T21:23:09.850Z,98421.84
2022-11-23T21:25:36.366Z,98410.50
2022-11-23T21:28:03.399Z,98420.78
2022-11-23T21:30:30.910Z,98419.94
2022-11-23T21:32:57.552Z,98423.41
2022-11-23T21:35:24.188Z,98432.16
2022-11-23T21:37:51.203Z,98433.81
2022-11-23T21:40:17.886Z,98431.88
2022-11-23T21:42:44.860Z,98432.75
2022-11-23T21:45:11.566Z,98432.75
2022-11-23T21:47:38.050Z,98443.13
2022-11-23T21:50:05.054Z,98444.81
2022-11-23T21:52:31.658Z,98450.06
2022-11-23T21:54:58.214Z,98450.06
2022-11-23T21:57:24.830Z,98451.72
2022-11-23T21:59:51.402Z,98447.22
2022-11-23T22:02:18.002Z,98444.38
2022-11-23T22:04:44.570Z,98445.28
2022-11-23T22:07:11.172Z,98450.44
2022-11-23T22:09:38.053Z,98440.78
2022-11-23T22:12:04.691Z,98455.47
2022-11-23T22:14:31.796Z,98447.69
2022-11-23T22:16:58.528Z,98450.44
2022-11-23T22:19:25.037Z,98452.25
2022-11-23T22:21:51.618Z,98461.06
2022-11-23T22:24:19.511Z,98454.25
2022-11-23T22:26:47.883Z,98463.94
2022-11-23T22:29:15.108Z,98472.75
2022-11-23T22:31:41.808Z,98469.41
2022-11-23T22:34:11.289Z,98466.06
2022-11-23T22:36:37.988Z,98476.47
2022-11-23T22:39:06.793Z,98471.47
2022-11-23T22:41:36.696Z,98474.09
2022-11-23T22:44:05.639Z,98474.19
2022-11-23T22:46:32.193Z,98469.03
2022-11-23T22:48:59.358Z,98469.16
2022-11-23T22:51:27.566Z,98477.16
2022-11-23T22:53:55.990Z,98476.44
2022-11-23T22:56:22.746Z,98484.44
2022-11-23T22:58:49.498Z,98486.44
2022-11-23T23:01:17.190Z,98485.81
2022-11-23T23:03:44.038Z,98493.00
2022-11-23T23:06:21.931Z,98492.38
2022-11-23T23:08:54.115Z,98495.97
2022-11-23T23:11:21.135Z,98495.09
2022-11-23T23:13:47.735Z,98501.31
2022-11-23T23:16:14.386Z,98506.56
2022-11-23T23:18:41.796Z,98502.28
2022-11-23T23:21:14.191Z,98506.69
2022-11-23T23:23:42.993Z,98504.91
2022-11-23T23:26:10.700Z,98502.28
2022-11-23T23:28:37.387Z,98512.88
2022-11-23T23:31:06.531Z,98506.78
2022-11-23T23:33:33.406Z,98523.50
2022-11-23T23:36:15.004Z,98525.75
2022-11-23T23:38:41.857Z,98521.34
2022-11-23T23:41:09.696Z,98525.84
2022-11-23T23:43:36.821Z,98534.69
2022-11-23T23:46:06.435Z,98534.19
2022-11-23T23:48:37.612Z,98533.34
2022-11-23T23:51:15.009Z,98541.47
2022-11-23T23:53:41.788Z,98536.31
2022-11-23T23:56:13.412Z,98537.47
2022-11-23T23:58:39.785Z,98539.34
